默认 日期 大小 文件数 浏览量 最新下载 xml
2024 a磁力链接相关资源由用户搜索指令自动获取,结果来源于网络,本站不存储任何资料,亦不承担任何责任,请于24小时内删除,搜索到12003个磁力,显示前4000条数据,用时25ms。
    ... . Bryan Kearney & Bo Bruce - Shine A Light (Extended Mix).mp3": 17863090 ... & Ruben de Ronde - Destination (ASOT 2024 Anthem) (Extended Mix).mp3": 15090028}
创建时间: 2024-02-18 18:15:22 大小:801.35 MB 文件数量:57 热度:5 最近下载:2025-01-21 22:43:12
    {" (1).jpg": 579855, " (2).jpg": 607114, " (3).jpg": 578866, " (4).jpg": 518966, " (5).jpg": 568254, " (6).jpg": 554944, " (7).jpg": 476131, " (8).jpg": 562937, " (9).jpg": 479094, " (10).jpg": 605985, " (11).jpg": 548477, " (12).jpg": 616977, " (13).jpg": ...
创建时间: 2024-02-18 18:17:04 大小:60.35 MB 文件数量:102 热度:17 最近下载:2025-09-19 10:16:08
    {" (1).jpg": 830328, " (2).jpg": 828847, " (3).jpg": 857481, " (4).jpg": 858953, " (5).jpg": 913224, " (6).jpg": 895145, " (7).jpg": 812705, " (8).jpg": 790658, " (9).jpg": 912017, " (10).jpg": 921944, " (11).jpg": 935557, " (12).jpg": 908548, " (13).jpg": ...
创建时间: 2024-02-18 18:28:52 大小:32.71 MB 文件数量:43 热度:13 最近下载:2025-09-14 23:42:02
    {"NEW upcoming releases by Xclusive.txt": 71, "[TGx]Downloaded from torrentgalaxy.to .txt": 479, "20-20.2024.01.19.There.Is.A.Monster.In.Me.720p.WEB.h264-EDITH.mkv": 1647101131, "20-20.2024.01.19.there.is.a.monster.in.me.720p.web.h264-edith.nfo": 489}
创建时间: 2024-02-18 19:27:25 大小:1.53 GB 文件数量:4 热度:9 最近下载:2025-04-09 13:36:01
    {"INFO.nfo": 1158, "cover.jpg": 35945, "02. Harvester Attack.mp3": 8984889, "01. A Time of Quiet Between the Storms.mp3": 10644241}
创建时间: 2024-02-18 19:52:11 大小:18.76 MB 文件数量:4 热度:16 最近下载:2025-09-18 17:13:06
    {"Amidst.a.Snowstorm.of.Love.S01E07.2024.2160p.WEB-DL.H265.DDP- ... BlackTV.mkv": 1208979740, "Amidst.a ... .Snowstorm.of.Love.S01E08.2024.2160p.WEB-DL ...
创建时间: 2024-02-19 08:18:47 大小:2.16 GB 文件数量:4 热度:67 最近下载:2025-10-14 09:51:03
    ... . Train Shuffle.flac": 47936751, "10. A Step Forward.flac": 75503710, "01 ...
创建时间: 2024-02-19 08:18:58 大小:317.83 MB 文件数量:12 热度:4 最近下载:2025-02-14 20:59:02
    {"Comando.LA.url": 45, "TorrentDosFilmes.SE.url": 152, "BAIXAR OUTROS FILMES.url": 210, "Einstein e a Bomba 2024 WEB-DL 1080p x264 DUAL 5.1.mkv": 1893866295}
创建时间: 2024-02-19 08:19:33 大小:1.76 GB 文件数量:4 热度:10 最近下载:2025-04-02 20:53:01
    {"Importante Leeme!.vbs": 213, "Descargar Películas, Series y Animes...url": 50, "Snoopy.presenta.Bienvenido.a.casa.Franklin.2024.DVDRip-Lat.mp4": 668869277}
创建时间: 2024-02-19 09:34:09 大小:637.88 MB 文件数量:3 热度:4 最近下载:2025-01-18 04:07:04
    ... - Nature.flac": 65604600, "02 - Wait A Sec.flac": 69946748, "04 - Keep ... It Simple.flac": 53598521, "01 - A Runner's Mind.flac": 84060849 ... , "09 - Let's Take A Ride.flac": 32496421, "03 - Till ...
创建时间: 2024-02-19 09:41:21 大小:552.97 MB 文件数量:10 热度:6 最近下载:2025-08-03 03:06:02
    {"source.txt": 58, "NEW upcoming releases by Xclusive.txt": 71, "[TGx]Downloaded from torrentgalaxy.to .txt": 479, "A.Soweto.Love.Story.2024.CZECH.1080p.WEBRip.DDP5.1.x265.10bit-GalaxyRG265.mkv": 2223655589}
创建时间: 2024-02-19 09:43:16 大小:2.07 GB 文件数量:4 热度:18 最近下载:2025-07-05 14:12:03
    {"Readme.txt": 1095, "Zill D. A First Course in Differential Equations with Modeling Apps 11ed 2018.pdf": 21801047, "Zill D. A First Course in Differential Equations with Modeling Apps 12ed 2024.pdf": 27895107}
创建时间: 2024-02-19 09:52:34 大小:47.39 MB 文件数量:3 热度:5 最近下载:2025-01-15 11:38:11
    {"大江大河.Like.a.Flowing.River.S03E01.2024.1080p.WEB-DL ... 江大河.Like.a.Flowing.River.S03E02.2024.1080p.WEB-DL ... 江大河.Like.a.Flowing.River.S03E03.2024.1080p.WEB-DL ... 江大河.Like.a.Flowing.River.S03E04.2024.1080p.WEB-DL ... 江大河.Like.a.Flowing.River.S03E05.2024.1080p.WEB-DL ...
创建时间: 2024-02-19 10:38:20 大小:10.19 GB 文件数量:35 热度:80 最近下载:2025-10-16 21:08:03
    ... , "01. Stand Back and Take a Good Look.flac": 48627253}
创建时间: 2024-02-19 10:55:07 大小:666.91 MB 文件数量:14 热度:7 最近下载:2025-08-07 19:07:04
    {"大江大河.Like.a.Flowing.River.S03E29.2024.1080p.WEB-DL ... 江大河.Like.a.Flowing.River.S03E30.2024.1080p.WEB-DL ...
创建时间: 2024-02-19 11:45:37 大小:1.4 GB 文件数量:4 热度:73 最近下载:2025-10-17 12:47:01
    {"Torrent Downloaded From XXXClub.to .nfo": 34, "stephaneprodx.2024.cassy.hill.zoubida.two.bbws.banging.a.big.cock.xxx.mp4": 544554167}
创建时间: 2024-02-19 12:24:56 大小:519.33 MB 文件数量:2 热度:7 最近下载:2025-02-15 22:49:04
    {"01.png": 707129, "02.png": 572252, "03.png": 783057, "04.png": 868072, "05.png": 778129, "06.png": 808842, "07.png": 828873, "08.png": 679687, "09.png": 762744, "10.png": 818576, "11.png": 810051, "12.png": 806180, "13.png": 892905, "14.png": 906419, "15 ...
创建时间: 2024-02-19 13:24:29 大小:19.63 MB 文件数量:27 热度:6 最近下载:2025-01-15 16:20:05
    ... .mp3": 9374294, "3.Hate as a Reason.mp3": 10869159, "9.Red ...
创建时间: 2024-02-19 15:13:22 大小:92.03 MB 文件数量:11 热度:5 最近下载:2025-03-26 00:05:01
    ... 543777895, "Amidst.A.Snowstorm.Love.2024.EP02.HD1080P.X264.AAC ... 1112898190, "Amidst.A.Snowstorm.Love.2024.EP28.HD1080P.X264.AAC ... 1108968647, "Amidst.A.Snowstorm.Love.2024.EP29.HD1080P.X264.AAC ... 1118306458, "Amidst.A.Snowstorm.Love.2024.EP30.HD1080P.X264.AAC ...
创建时间: 2024-02-19 15:44:21 大小:15.57 GB 文件数量:31 热度:5 最近下载:2025-02-23 23:40:02
    ... Remastered 2023).mp3": 8750386, "05. A Man Could Get Lost (2023 ... Remastered 2023).mp3": 11709555, "08. A Man Could Get Lost (Daniel ... Miller Instrumental).mp3": 8507996, "02. A Man Could Get Lost (7_ ...
创建时间: 2024-02-19 15:51:25 大小:95.75 MB 文件数量:10 热度:11 最近下载:2025-09-15 16:50:07